Time;durP1;ratioP1;P1;durP2;ratioP2;P2;SDS_P1;SDS_P2;PMS_P1;PMS_P2;Temp;Humidity;BMP_temperature;BMP_pressure;BME280_temperature;BME280_humidity;BME280_pressure;Samples;Min_cycle;Max_cycle;Signal;HPM_P1;HPM_P2
2021/08/17 00:02:54;;;;;;;10.57;2.63;;;;;;;14.90;77.81;100557.81;5908011;29;20594;-56
2021/08/17 00:06:14;;;;;;;6.63;2.07;;;;;;;14.77;77.94;100563.44;5913149;29;20241;-52
2021/08/17 00:09:35;;;;;;;6.97;2.47;;;;;;;14.90;76.78;100566.50;5908881;29;20243;-56
2021/08/17 00:12:58;;;;;;;7.17;2.30;;;;;;;15.05;76.17;100585.31;5914165;29;20251;-56
2021/08/17 00:16:19;;;;;;;8.43;2.67;;;;;;;14.96;76.83;100573.34;5913429;29;20313;-53
2021/08/17 00:19:40;;;;;;;7.43;2.37;;;;;;;15.12;76.18;100576.31;5913344;29;20975;-54
2021/08/17 00:23:01;;;;;;;10.70;3.13;;;;;;;15.14;76.00;100570.16;5913588;29;20283;-55
2021/08/17 00:26:22;;;;;;;8.70;2.50;;;;;;;15.33;75.44;100564.28;5910695;29;20242;-51
2021/08/17 00:29:44;;;;;;;9.83;3.17;;;;;;;15.27;75.74;100573.22;5899256;29;20245;-55
2021/08/17 00:33:05;;;;;;;8.67;3.20;;;;;;;15.50;74.86;100584.75;5908396;29;20249;-56
2021/08/17 00:36:28;;;;;;;13.67;3.83;;;;;;;15.24;75.82;100580.34;5912266;29;20618;-52
2021/08/17 00:39:49;;;;;;;9.70;2.67;;;;;;;15.49;74.87;100585.63;5909081;29;20245;-56
2021/08/17 00:43:10;;;;;;;12.80;3.43;;;;;;;15.46;75.39;100581.34;5912645;29;20234;-55
2021/08/17 00:46:33;;;;;;;6.10;2.20;;;;;;;15.37;75.75;100573.78;5909908;29;20725;-55
2021/08/17 00:49:54;;;;;;;14.60;4.10;;;;;;;15.30;76.29;100580.16;5907619;29;20233;-54
2021/08/17 00:53:15;;;;;;;10.43;3.33;;;;;;;15.34;76.13;100581.75;5909346;29;20242;-56
2021/08/17 00:56:37;;;;;;;14.60;4.23;;;;;;;15.19;77.10;100587.50;5902411;29;20332;-52
2021/08/17 00:59:58;;;;;;;14.10;3.40;;;;;;;15.28;76.66;100592.47;5909132;29;20245;-50
2021/08/17 01:03:20;;;;;;;15.47;4.10;;;;;;;15.12;77.50;100587.69;5909122;29;20237;-53
2021/08/17 01:06:41;;;;;;;9.50;3.03;;;;;;;15.03;78.32;100590.59;5907158;29;20261;-54
2021/08/17 01:10:04;;;;;;;9.30;2.93;;;;;;;15.14;77.55;100590.25;5901494;29;20238;-52
2021/08/17 01:13:27;;;;;;;7.57;2.73;;;;;;;15.30;76.42;100607.25;5902453;29;20246;-54
2021/08/17 01:16:48;;;;;;;6.50;2.23;;;;;;;15.35;76.30;100599.22;5904590;29;20237;-54
2021/08/17 01:20:14;;;;;;;7.63;2.67;;;;;;;15.42;75.98;100605.97;5906340;29;20619;-51
2021/08/17 01:23:36;;;;;;;9.60;2.60;;;;;;;15.34;75.89;100613.25;5904064;29;20229;-53
2021/08/17 01:26:58;;;;;;;7.10;2.70;;;;;;;15.43;75.39;100618.22;5900726;29;20230;-52
2021/08/17 01:30:19;;;;;;;11.10;2.73;;;;;;;15.51;74.95;100610.94;5911498;29;20234;-56
2021/08/17 01:33:40;;;;;;;9.73;2.47;;;;;;;15.45;75.06;100610.25;5913163;29;20254;-51
2021/08/17 01:37:01;;;;;;;6.70;2.60;;;;;;;15.45;74.45;100605.91;5911022;29;20652;-54
2021/08/17 01:40:22;;;;;;;7.93;2.00;;;;;;;15.58;73.76;100610.72;5911048;29;20242;-55
2021/08/17 01:43:45;;;;;;;8.40;1.97;;;;;;;15.69;73.11;100624.34;5911196;29;20250;-54
2021/08/17 01:47:06;;;;;;;7.07;2.03;;;;;;;15.38;73.95;100625.34;5911266;29;20268;-51
2021/08/17 01:50:27;;;;;;;6.50;2.27;;;;;;;15.61;73.32;100637.75;5910451;29;20238;-54
2021/08/17 01:53:48;;;;;;;7.57;1.90;;;;;;;15.36;73.91;100643.78;5910007;29;20238;-54
2021/08/17 01:57:09;;;;;;;15.00;3.23;;;;;;;15.61;73.18;100655.25;5909692;29;20336;-53
2021/08/17 02:00:32;;;;;;;7.03;2.53;;;;;;;15.51;74.34;100649.44;5909617;29;20238;-53
2021/08/17 02:03:52;;;;;;;5.90;2.00;;;;;;;15.28;75.59;100660.66;5910867;29;20234;-54
2021/08/17 02:07:14;;;;;;;6.57;2.30;;;;;;;15.17;76.20;100666.22;5911278;29;20249;-55
2021/08/17 02:10:35;;;;;;;6.20;1.90;;;;;;;15.31;75.18;100669.28;5909989;29;20998;-54
2021/08/17 02:13:56;;;;;;;7.07;2.97;;;;;;;15.34;74.91;100681.47;5910848;29;20242;-53
2021/08/17 02:17:18;;;;;;;5.37;1.80;;;;;;;15.35;74.70;100677.91;5910153;29;20320;-53
2021/08/17 02:20:40;;;;;;;10.20;3.57;;;;;;;15.41;74.34;100683.00;5906632;29;20520;-56
2021/08/17 02:24:00;;;;;;;9.17;4.30;;;;;;;15.44;74.15;100687.28;5903039;29;20234;-51
2021/08/17 02:27:21;;;;;;;9.30;2.60;;;;;;;15.21;75.12;100680.97;5908264;29;20242;-52
2021/08/17 02:30:42;;;;;;;10.37;3.03;;;;;;;15.30;75.11;100685.94;5906046;29;20617;-55
2021/08/17 02:34:04;;;;;;;8.43;3.20;;;;;;;15.08;76.20;100690.09;5909967;29;21018;-52
2021/08/17 02:37:25;;;;;;;11.20;3.23;;;;;;;15.24;75.97;100694.00;5908895;29;20277;-53
2021/08/17 02:40:47;;;;;;;11.70;3.70;;;;;;;15.31;75.48;100695.50;5908318;29;20271;-55
2021/08/17 02:44:08;;;;;;;11.87;3.87;;;;;;;15.36;75.72;100696.25;5912213;29;20333;-55
2021/08/17 02:47:29;;;;;;;9.50;3.27;;;;;;;15.29;76.01;100694.69;5910756;29;20349;-56
2021/08/17 02:50:51;;;;;;;7.77;2.43;;;;;;;15.08;77.50;100688.38;5907558;29;20641;-55
2021/08/17 02:54:12;;;;;;;9.50;3.13;;;;;;;14.79;78.33;100683.09;5911449;29;20272;-54
2021/08/17 02:57:33;;;;;;;6.03;2.60;;;;;;;15.01;77.73;100683.34;5907289;29;20521;-54
2021/08/17 03:00:53;;;;;;;7.90;2.80;;;;;;;15.09;76.89;100686.59;5906044;29;20543;-53
2021/08/17 03:04:15;;;;;;;7.07;3.17;;;;;;;15.22;75.96;100692.31;5909364;29;20241;-54
2021/08/17 03:07:37;;;;;;;7.67;2.70;;;;;;;15.20;76.29;100689.75;5911185;29;20242;-55
2021/08/17 03:10:58;;;;;;;6.27;2.70;;;;;;;15.16;76.46;100693.38;5902208;29;20249;-55
2021/08/17 03:14:19;;;;;;;8.13;2.67;;;;;;;15.32;75.77;100699.03;5909825;29;20257;-57
2021/08/17 03:17:40;;;;;;;9.83;2.77;;;;;;;15.40;75.55;100702.25;5908893;29;20553;-56
2021/08/17 03:21:01;;;;;;;8.53;2.80;;;;;;;15.09;75.62;100708.44;5909097;29;20257;-53
2021/08/17 03:24:23;;;;;;;5.30;2.90;;;;;;;15.41;74.22;100714.50;5911249;29;20253;-56
2021/08/17 03:27:44;;;;;;;9.70;3.57;;;;;;;15.50;73.11;100719.44;5909787;29;20242;-53
2021/08/17 03:31:06;;;;;;;9.37;3.07;;;;;;;15.50;72.47;100718.56;5910419;29;20584;-54
2021/08/17 03:34:27;;;;;;;7.53;2.67;;;;;;;15.29;73.32;100735.81;5915049;29;20570;-51
2021/08/17 03:37:48;;;;;;;6.40;2.17;;;;;;;15.35;72.88;100727.78;5914705;29;20245;-56
2021/08/17 03:41:10;;;;;;;7.03;2.40;;;;;;;15.14;73.64;100732.78;5909550;29;20237;-54
2021/08/17 03:44:31;;;;;;;8.93;2.87;;;;;;;15.23;73.28;100730.78;5913789;29;20226;-54
2021/08/17 03:47:52;;;;;;;5.63;2.40;;;;;;;15.13;73.37;100733.66;5911393;29;20238;-54
2021/08/17 03:51:13;;;;;;;5.03;2.57;;;;;;;15.48;72.11;100737.00;5914839;29;22073;-56
2021/08/17 03:54:34;;;;;;;5.13;2.30;;;;;;;15.47;72.30;100735.28;5909204;29;20246;-56
2021/08/17 03:57:56;;;;;;;10.30;2.80;;;;;;;15.39;72.91;100726.75;5911670;29;20234;-56
2021/08/17 04:01:19;;;;;;;6.13;2.70;;;;;;;15.54;72.29;100733.31;5912271;29;20245;-53
2021/08/17 04:04:40;;;;;;;7.37;2.40;;;;;;;15.39;73.06;100737.25;5914998;29;20688;-54
2021/08/17 04:08:04;;;;;;;8.20;3.77;;;;;;;15.36;73.59;100740.84;5906324;29;20245;-53
2021/08/17 04:11:26;;;;;;;9.07;3.60;;;;;;;15.51;73.53;100744.78;5908145;29;20242;-54
2021/08/17 04:14:48;;;;;;;8.00;2.60;;;;;;;15.16;75.27;100740.59;5914249;29;20254;-54
2021/08/17 04:18:09;;;;;;;7.67;2.80;;;;;;;14.97;75.62;100740.25;5910774;29;20597;-56
2021/08/17 04:21:30;;;;;;;5.00;2.40;;;;;;;15.12;74.14;100738.94;5912898;29;20234;-51
2021/08/17 04:24:51;;;;;;;10.43;3.60;;;;;;;15.05;75.57;100746.13;5911981;29;21092;-56
2021/08/17 04:28:12;;;;;;;7.97;2.40;;;;;;;15.23;75.23;100757.84;5912980;29;20309;-56
2021/08/17 04:31:34;;;;;;;9.67;3.40;;;;;;;15.24;75.22;100761.38;5906353;29;20234;-51
2021/08/17 04:34:55;;;;;;;8.00;3.03;;;;;;;15.13;76.74;100762.50;5913188;29;20238;-56
2021/08/17 04:38:16;;;;;;;6.03;2.63;;;;;;;15.27;76.50;100763.88;5912673;29;20552;-53
2021/08/17 04:41:37;;;;;;;7.50;2.77;;;;;;;15.21;76.73;100758.81;5918926;29;20282;-53
2021/08/17 04:44:58;;;;;;;7.33;2.93;;;;;;;15.13;77.75;100751.16;5913654;29;20241;-56
2021/08/17 04:48:21;;;;;;;4.37;2.53;;;;;;;15.28;77.49;100770.84;5912967;29;20271;-53
2021/08/17 04:51:42;;;;;;;6.87;3.77;;;;;;;15.27;78.04;100769.13;5912838;29;20238;-53
2021/08/17 04:55:02;;;;;;;8.43;3.83;;;;;;;14.91;80.06;100774.53;5910906;29;20237;-56
2021/08/17 04:58:23;;;;;;;11.60;3.33;;;;;;;14.88;80.33;100778.06;5912851;29;20274;-58
2021/08/17 05:01:44;;;;;;;10.17;4.50;;;;;;;14.81;81.53;100780.91;5900997;29;20274;-54
2021/08/17 05:05:07;;;;;;;12.10;4.83;;;;;;;14.96;81.57;100797.06;5912145;29;20265;-54
2021/08/17 05:08:28;;;;;;;7.60;4.07;;;;;;;15.25;79.80;100791.91;5909605;29;20253;-51
2021/08/17 05:11:49;;;;;;;10.97;3.90;;;;;;;15.41;79.42;100798.47;5911541;29;20234;-53
2021/08/17 05:15:12;;;;;;;6.17;3.30;;;;;;;15.65;78.09;100798.63;5905611;29;20341;-54
2021/08/17 05:18:33;;;;;;;10.73;4.27;;;;;;;15.61;79.21;100802.25;5909806;29;20712;-54
2021/08/17 05:21:55;;;;;;;8.80;4.17;;;;;;;15.69;78.68;100811.59;5907060;29;20237;-55
2021/08/17 05:25:16;;;;;;;14.00;5.50;;;;;;;15.73;79.06;100812.41;5906632;29;20321;-56
2021/08/17 05:28:37;;;;;;;13.57;5.30;;;;;;;15.86;79.07;100813.75;5909962;29;20678;-56
2021/08/17 05:31:58;;;;;;;13.53;5.17;;;;;;;15.87;78.91;100812.81;5904075;29;20246;-56
2021/08/17 05:35:19;;;;;;;8.90;4.30;;;;;;;15.82;79.39;100816.50;5909372;29;20238;-56
2021/08/17 05:38:41;;;;;;;9.97;4.27;;;;;;;15.70;80.05;100815.97;5910219;29;20230;-56
2021/08/17 05:42:02;;;;;;;8.60;4.40;;;;;;;15.47;81.89;100824.50;5914611;29;20648;-55
2021/08/17 05:45:23;;;;;;;12.40;4.67;;;;;;;15.69;80.62;100816.84;5909104;29;20328;-54
2021/08/17 05:48:44;;;;;;;9.53;4.67;;;;;;;15.64;81.35;100813.50;5900919;29;20258;-52
2021/08/17 05:52:06;;;;;;;11.23;5.07;;;;;;;15.49;81.69;100812.22;5911628;29;20243;-55
2021/08/17 05:55:29;;;;;;;13.30;5.27;;;;;;;15.65;81.36;100822.25;5909271;29;20605;-56
2021/08/17 05:58:49;;;;;;;10.13;5.07;;;;;;;15.77;80.85;100823.69;5909131;29;20637;-55
2021/08/17 06:02:10;;;;;;;9.57;3.57;;;;;;;15.61;81.69;100821.47;5907488;29;20614;-52
2021/08/17 06:05:31;;;;;;;13.67;4.17;;;;;;;15.68;81.29;100817.78;5904674;29;20242;-55
2021/08/17 06:08:52;;;;;;;10.83;4.00;;;;;;;15.86;80.62;100826.03;5890812;29;20238;-55
2021/08/17 06:12:14;;;;;;;10.73;4.63;;;;;;;16.04;80.21;100833.31;5920247;29;20249;-56
2021/08/17 06:15:35;;;;;;;10.90;4.57;;;;;;;16.21;79.09;100832.78;5910180;29;20235;-57
2021/08/17 06:18:56;;;;;;;8.97;3.73;;;;;;;16.37;78.34;100838.41;5908351;29;20241;-57
2021/08/17 06:22:17;;;;;;;9.50;3.80;;;;;;;16.30;78.71;100832.50;5906482;29;20269;-56
2021/08/17 06:25:38;;;;;;;10.27;3.83;;;;;;;16.23;79.10;100833.59;5909046;29;20242;-53
2021/08/17 06:29:00;;;;;;;11.93;3.63;;;;;;;16.27;78.10;100843.09;5910713;29;20325;-54
2021/08/17 06:32:22;;;;;;;16.77;5.43;;;;;;;16.29;78.48;100843.06;5906566;29;20636;-54
2021/08/17 06:35:43;;;;;;;10.33;3.80;;;;;;;16.70;76.85;100844.28;5911571;29;20237;-50
2021/08/17 06:39:04;;;;;;;14.13;5.60;;;;;;;17.24;74.12;100846.84;5905817;29;20567;-52
2021/08/17 06:42:26;;;;;;;11.00;4.33;;;;;;;16.67;76.91;100847.03;5909522;29;20237;-53
2021/08/17 06:45:48;;;;;;;6.93;2.80;;;;;;;16.49;78.59;100847.66;5909697;29;20641;-54
2021/08/17 06:49:09;;;;;;;6.00;3.77;;;;;;;16.34;79.71;100849.88;5909742;29;20594;-51
2021/08/17 06:52:30;;;;;;;10.47;3.77;;;;;;;16.29;79.81;100846.53;5909565;29;20317;-49
2021/08/17 06:55:51;;;;;;;9.77;4.63;;;;;;;15.68;82.02;100848.41;5909092;29;20952;-52
2021/08/17 06:59:13;;;;;;;6.10;3.27;;;;;;;15.91;80.58;100847.72;5908189;29;20290;-56
2021/08/17 07:02:35;;;;;;;6.63;3.33;;;;;;;16.38;79.01;100857.66;5901469;29;20245;-52
2021/08/17 07:05:57;;;;;;;8.90;3.67;;;;;;;16.23;80.65;100851.13;5908110;29;20238;-52
2021/08/17 07:09:18;;;;;;;6.43;2.93;;;;;;;16.24;80.51;100851.06;5909728;29;20234;-56
2021/08/17 07:12:39;;;;;;;9.13;3.50;;;;;;;16.14;81.11;100853.13;5907274;29;20250;-52
2021/08/17 07:16:00;;;;;;;7.77;2.80;;;;;;;16.37;79.76;100853.31;5907307;29;20238;-55
2021/08/17 07:19:22;;;;;;;10.87;4.00;;;;;;;16.48;79.14;100856.47;5905332;29;20798;-56
2021/08/17 07:22:44;;;;;;;9.60;3.87;;;;;;;16.38;79.32;100849.75;5903050;29;20246;-54
2021/08/17 07:26:05;;;;;;;10.53;3.37;;;;;;;16.83;77.71;100850.03;5901999;29;20333;-53
2021/08/17 07:29:26;;;;;;;7.07;2.83;;;;;;;16.83;77.13;100854.44;5902395;29;20320;-55
2021/08/17 07:32:47;;;;;;;7.30;3.63;;;;;;;17.35;76.31;100849.97;5893356;29;20241;-51
2021/08/17 07:36:11;;;;;;;7.20;2.43;;;;;;;16.98;76.21;100851.25;5899960;29;20521;-53
2021/08/17 07:39:32;;;;;;;10.40;3.23;;;;;;;16.30;79.16;100850.00;5900659;29;20246;-53
2021/08/17 07:42:53;;;;;;;5.00;2.53;;;;;;;16.04;79.72;100858.72;5899170;29;20511;-52
2021/08/17 07:46:14;;;;;;;4.23;2.37;;;;;;;16.22;79.14;100845.00;5898814;29;20245;-53
2021/08/17 07:49:35;;;;;;;6.57;2.80;;;;;;;16.45;79.05;100856.53;5897402;29;20769;-56
2021/08/17 07:52:57;;;;;;;9.77;3.17;;;;;;;15.91;79.71;100851.22;5904569;29;20242;-54
2021/08/17 07:56:18;;;;;;;5.83;2.30;;;;;;;16.49;77.76;100866.91;5908521;29;20629;-55
2021/08/17 07:59:39;;;;;;;8.47;2.77;;;;;;;16.70;77.09;100851.34;5906872;29;20629;-54
2021/08/17 08:03:00;;;;;;;6.07;2.40;;;;;;;16.86;75.63;100867.47;5904521;29;20237;-52
2021/08/17 08:06:21;;;;;;;3.73;2.40;;;;;;;16.78;75.79;100880.00;5909984;29;20238;-54
2021/08/17 08:09:43;;;;;;;6.47;1.90;;;;;;;16.54;75.16;100867.63;5903143;29;20356;-50
2021/08/17 08:13:04;;;;;;;4.30;1.93;;;;;;;17.04;74.47;100884.38;5908080;29;20246;-52
2021/08/17 08:16:26;;;;;;;7.13;3.10;;;;;;;16.28;78.49;100884.22;5908988;29;20578;-56
2021/08/17 08:19:47;;;;;;;4.07;2.67;;;;;;;15.92;80.26;100884.47;5915404;29;20250;-53
2021/08/17 08:23:08;;;;;;;5.07;2.57;;;;;;;16.01;79.33;100885.94;5910833;29;20261;-53
2021/08/17 08:26:31;;;;;;;6.10;2.37;;;;;;;16.09;80.34;100885.69;5911758;29;20293;-53
2021/08/17 08:29:51;;;;;;;4.60;2.27;;;;;;;16.23;77.84;100891.41;5913043;29;20637;-52
2021/08/17 08:33:12;;;;;;;4.53;2.57;;;;;;;16.03;79.20;100891.16;5909860;29;20605;-51
2021/08/17 08:36:33;;;;;;;10.53;3.30;;;;;;;16.06;78.95;100897.16;5911232;29;20234;-53
2021/08/17 08:39:55;;;;;;;6.73;3.57;;;;;;;15.84;80.00;100906.59;5912318;29;20243;-52
2021/08/17 08:43:20;;;;;;;6.37;2.60;;;;;;;15.44;81.54;100907.72;5902715;29;20237;-53
2021/08/17 08:46:42;;;;;;;6.43;2.53;;;;;;;15.42;82.28;100915.63;5912044;29;20344;-51
2021/08/17 08:50:04;;;;;;;5.60;2.87;;;;;;;15.55;81.67;100911.75;5912280;29;20325;-56
2021/08/17 08:53:25;;;;;;;6.00;2.43;;;;;;;15.59;81.30;100914.31;5912681;29;20242;-52
2021/08/17 08:56:46;;;;;;;7.13;3.17;;;;;;;14.56;85.76;100923.06;5905638;29;20245;-54
2021/08/17 09:00:12;;;;;;;7.27;3.20;;;;;;;15.25;84.80;100913.44;5905802;29;20696;-55
2021/08/17 09:03:51;;;;;;;9.80;3.33;;;;;;;14.84;86.72;100923.25;5906736;29;20333;-52
2021/08/17 09:07:12;;;;;;;7.13;4.03;;;;;;;14.81;86.06;100922.47;5902626;29;20237;-51
2021/08/17 09:10:33;;;;;;;9.60;4.33;;;;;;;15.23;85.35;100923.13;5900304;29;20337;-54
2021/08/17 09:13:54;;;;;;;9.70;3.80;;;;;;;15.27;84.72;100937.88;5899737;29;20265;-55
2021/08/17 09:17:19;;;;;;;9.17;3.70;;;;;;;15.58;83.76;100931.81;5899125;29;20246;-55
2021/08/17 09:20:43;;;;;;;7.97;3.73;;;;;;;15.45;83.98;100936.53;5902075;29;20320;-56
2021/08/17 09:24:15;;;;;;;5.77;2.70;;;;;;;15.71;82.99;100932.31;5897672;29;20245;-57
2021/08/17 09:27:37;;;;;;;3.13;2.43;;;;;;;15.84;81.12;100933.72;5889053;29;20286;-54
2021/08/17 09:30:59;;;;;;;3.10;2.00;;;;;;;15.70;81.10;100931.47;5896263;29;20238;-53
2021/08/17 09:34:24;;;;;;;3.00;2.17;;;;;;;15.67;82.36;100935.94;5907605;29;20226;-51
2021/08/17 09:37:45;;;;;;;4.13;2.43;;;;;;;15.65;81.68;100937.75;5897215;29;20333;-51
2021/08/17 09:41:20;;;;;;;6.40;2.43;;;;;;;15.65;82.38;100943.84;5905620;29;20237;-55
2021/08/17 09:44:43;;;;;;;6.33;2.10;;;;;;;15.58;81.92;100949.31;5907577;29;20265;-52
2021/08/17 09:48:05;;;;;;;3.37;1.70;;;;;;;15.34;83.77;100949.09;5898930;29;21997;-55
2021/08/17 09:51:35;;;;;;;4.50;1.50;;;;;;;15.49;82.90;100948.69;5912498;29;20612;-52
2021/08/17 09:54:55;;;;;;;3.30;2.03;;;;;;;15.26;83.48;100943.19;5908421;29;20266;-55
2021/08/17 09:58:19;;;;;;;2.10;1.90;;;;;;;15.28;84.75;100957.13;5908783;29;20637;-55
2021/08/17 10:01:40;;;;;;;4.03;2.50;;;;;;;15.25;84.86;100937.06;5906548;29;20245;-50
2021/08/17 10:05:01;;;;;;;13.23;4.27;;;;;;;15.67;82.74;100936.81;5906118;29;20237;-53
2021/08/17 10:08:26;;;;;;;3.57;2.67;;;;;;;15.79;83.21;100929.50;5904758;29;20317;-52
2021/08/17 10:11:47;;;;;;;5.43;2.83;;;;;;;16.07;80.67;100932.16;5903225;29;20242;-54
2021/08/17 10:15:10;;;;;;;7.53;3.43;;;;;;;15.42;82.06;100928.75;5897413;29;20242;-52
2021/08/17 10:18:36;;;;;;;5.33;2.43;;;;;;;15.85;80.89;100940.69;5896952;29;20245;-49
2021/08/17 10:22:00;;;;;;;5.83;2.90;;;;;;;16.01;80.08;100932.34;5902313;29;20325;-53
2021/08/17 10:25:24;;;;;;;4.40;2.40;;;;;;;16.36;78.92;100938.31;5902348;29;20628;-52
2021/08/17 10:28:44;;;;;;;5.37;2.90;;;;;;;16.12;79.65;100925.03;5900434;29;20238;-52
2021/08/17 10:32:06;;;;;;;6.17;2.60;;;;;;;15.84;81.14;100944.22;5903723;29;20238;-53
2021/08/17 10:35:55;;;;;;;6.40;3.10;;;;;;;16.66;77.83;100947.00;5906803;29;20234;-52
2021/08/17 10:39:32;;;;;;;8.00;3.80;;;;;;;16.08;80.00;100931.28;5906029;29;22434;-53
2021/08/17 10:42:54;;;;;;;7.67;3.07;;;;;;;16.59;77.88;100932.31;5905486;29;20249;-51
2021/08/17 10:46:16;;;;;;;7.03;3.00;;;;;;;16.40;78.81;100932.03;5890412;29;20249;-52
2021/08/17 10:49:49;;;;;;;12.23;3.47;;;;;;;16.53;77.74;100934.22;5891866;29;20241;-51
2021/08/17 10:53:38;;;;;;;4.90;3.30;;;;;;;16.74;77.57;100930.06;5891116;29;20250;-51
2021/08/17 10:57:16;;;;;;;9.07;3.77;;;;;;;16.48;78.02;100937.94;5893226;29;20245;-54
2021/08/17 11:00:53;;;;;;;8.67;3.47;;;;;;;16.64;78.18;100933.91;5892366;29;20557;-52
2021/08/17 11:04:19;;;;;;;9.73;3.90;;;;;;;16.65;76.67;100964.56;5885561;29;22864;-52
2021/08/17 11:07:40;;;;;;;14.67;4.60;;;;;;;16.36;78.53;100935.69;5893685;29;20652;-51
2021/08/17 11:11:03;;;;;;;10.83;4.00;;;;;;;16.74;76.22;100980.00;5895467;29;20237;-50
2021/08/17 11:14:26;;;;;;;11.30;3.73;;;;;;;16.38;76.70;100968.03;5886816;29;20625;-55
2021/08/17 11:17:48;;;;;;;7.60;3.03;;;;;;;16.33;75.53;100971.66;5904631;29;20257;-52
2021/08/17 11:21:08;;;;;;;8.23;3.43;;;;;;;16.45;74.81;100965.16;5897390;29;20246;-51
2021/08/17 11:24:31;;;;;;;8.63;4.20;;;;;;;16.29;75.79;100996.31;5901872;29;20997;-53
2021/08/17 11:27:52;;;;;;;10.33;4.53;;;;;;;16.19;76.49;101007.13;5904114;29;20625;-49
2021/08/17 11:31:13;;;;;;;9.73;3.63;;;;;;;16.52;75.63;100974.59;5906038;29;20324;-50
2021/08/17 11:34:37;;;;;;;9.60;4.17;;;;;;;16.19;76.78;100979.13;5908095;29;20246;-54
2021/08/17 11:37:58;;;;;;;11.43;4.50;;;;;;;15.99;77.88;100981.44;5898822;29;20264;-55
2021/08/17 11:41:29;;;;;;;10.37;5.10;;;;;;;16.28;77.19;101002.47;5900169;29;20605;-55
2021/08/17 11:44:52;;;;;;;8.17;4.40;;;;;;;16.38;77.48;100999.56;5908972;29;20332;-52
2021/08/17 11:48:13;;;;;;;12.57;3.63;;;;;;;15.97;78.87;101006.91;5905446;29;20249;-55
2021/08/17 11:51:35;;;;;;;10.47;3.93;;;;;;;16.02;78.55;100994.50;5905733;29;20625;-50
2021/08/17 11:54:59;;;;;;;7.63;3.93;;;;;;;15.74;79.65;100979.50;5911512;29;20253;-52
2021/08/17 11:58:21;;;;;;;6.80;3.63;;;;;;;15.78;79.56;100990.78;5910438;29;20246;-53
2021/08/17 12:01:42;;;;;;;7.53;4.13;;;;;;;16.22;77.64;100992.13;5908988;29;20238;-51
2021/08/17 12:05:06;;;;;;;13.93;4.10;;;;;;;16.25;77.16;101002.56;5911886;29;20233;-54
2021/08/17 12:08:28;;;;;;;9.73;4.27;;;;;;;16.22;77.13;100994.78;5910234;29;20250;-53
2021/08/17 12:11:58;;;;;;;10.87;4.10;;;;;;;16.26;77.58;100991.13;5917331;29;20242;-51
2021/08/17 12:15:20;;;;;;;12.53;5.00;;;;;;;16.48;75.61;100987.88;5909348;29;20237;-53
2021/08/17 12:18:41;;;;;;;13.37;5.03;;;;;;;16.68;75.84;100977.59;5906597;29;20238;-54
2021/08/17 12:22:04;;;;;;;14.70;4.47;;;;;;;16.45;76.49;100978.31;5910593;29;20261;-52
2021/08/17 12:25:29;;;;;;;11.57;4.80;;;;;;;15.91;77.71;100976.41;5912310;29;20246;-54
2021/08/17 12:28:52;;;;;;;11.60;5.43;;;;;;;16.18;76.76;100980.00;5911647;29;20526;-59
2021/08/17 12:32:18;;;;;;;12.03;4.83;;;;;;;16.37;74.54;100974.22;5913103;29;20609;-55
2021/08/17 12:35:39;;;;;;;8.87;4.37;;;;;;;17.65;70.76;100978.75;5915797;29;20274;-54
2021/08/17 12:39:07;;;;;;;10.43;4.20;;;;;;;16.92;73.17;100969.84;5915196;29;20258;-52
2021/08/17 12:42:29;;;;;;;9.77;4.37;;;;;;;16.91;73.86;100987.41;5913749;29;20245;-52
2021/08/17 12:45:51;;;;;;;12.13;5.00;;;;;;;17.25;73.14;100993.31;5914605;29;20245;-52
2021/08/17 12:49:12;;;;;;;9.23;4.30;;;;;;;16.97;74.46;100993.38;5914914;29;20622;-51
2021/08/17 12:52:41;;;;;;;11.67;6.07;;;;;;;16.71;75.07;101003.81;5915001;29;20241;-52
2021/08/17 12:56:01;;;;;;;9.33;4.93;;;;;;;16.60;76.44;101007.69;5909905;29;20257;-50
2021/08/17 12:59:23;;;;;;;11.93;5.40;;;;;;;16.48;77.95;101006.28;5914176;29;21026;-53
2021/08/17 13:02:47;;;;;;;10.03;4.93;;;;;;;16.59;76.47;101000.69;5911894;29;20340;-54
2021/08/17 13:06:07;;;;;;;10.97;5.80;;;;;;;16.17;76.87;101004.56;5916048;29;20241;-52
2021/08/17 13:09:28;;;;;;;10.43;4.77;;;;;;;16.62;75.34;101006.72;5912694;29;20241;-52
2021/08/17 13:12:49;;;;;;;12.33;5.53;;;;;;;16.78;75.29;101008.84;5914277;29;20269;-52
2021/08/17 13:16:12;;;;;;;12.10;6.23;;;;;;;16.72;75.19;101002.88;5912983;29;20841;-54
2021/08/17 13:19:33;;;;;;;12.17;5.97;;;;;;;16.44;75.31;101017.78;5911235;29;20253;-54
2021/08/17 13:22:55;;;;;;;15.50;5.50;;;;;;;16.37;76.31;101021.50;5915188;29;20249;-56
2021/08/17 13:26:16;;;;;;;11.73;4.60;;;;;;;16.28;74.63;101009.50;5914281;29;20870;-50
2021/08/17 13:29:36;;;;;;;10.30;5.17;;;;;;;16.58;73.30;101005.09;5914265;29;20246;-52
2021/08/17 13:32:59;;;;;;;10.57;5.57;;;;;;;16.80;71.75;101010.53;5914785;29;20617;-54
2021/08/17 13:36:19;;;;;;;7.37;4.93;;;;;;;17.29;70.77;101003.69;5914094;29;20278;-50
2021/08/17 13:39:40;;;;;;;9.67;5.60;;;;;;;17.50;69.86;100995.94;5912800;29;22819;-52
2021/08/17 13:43:01;;;;;;;15.37;7.53;;;;;;;17.70;69.91;100997.91;5913148;29;20337;-56
2021/08/17 13:46:22;;;;;;;12.50;5.77;;;;;;;17.60;69.05;101012.28;5913847;29;20253;-52
2021/08/17 13:49:44;;;;;;;14.37;6.23;;;;;;;17.24;69.92;101012.66;5913079;29;20629;-52
2021/08/17 13:53:05;;;;;;;12.73;7.30;;;;;;;16.86;71.88;101009.50;5912908;29;20242;-53
2021/08/17 13:56:26;;;;;;;11.17;6.33;;;;;;;16.59;71.49;101012.03;5915471;29;20238;-53
2021/08/17 13:59:47;;;;;;;11.10;5.00;;;;;;;16.64;70.54;101020.66;5907097;29;20624;-49
2021/08/17 14:03:08;;;;;;;7.80;5.47;;;;;;;16.87;70.55;101029.66;5909072;29;20234;-55
2021/08/17 14:06:30;;;;;;;11.70;7.10;;;;;;;16.84;72.73;101024.47;5912300;29;20246;-54
2021/08/17 14:09:51;;;;;;;14.67;6.67;;;;;;;16.85;71.51;101020.94;5913672;29;20275;-54
2021/08/17 14:13:12;;;;;;;13.83;6.83;;;;;;;17.27;70.01;101013.41;5913304;29;20896;-53
2021/08/17 14:16:34;;;;;;;11.73;5.70;;;;;;;17.36;68.69;101012.22;5912630;29;20250;-53
2021/08/17 14:19:55;;;;;;;17.97;6.37;;;;;;;17.36;67.64;101028.03;5910714;29;20269;-52
2021/08/17 14:23:18;;;;;;;12.23;5.77;;;;;;;17.19;68.73;101023.31;5911675;29;20871;-54
2021/08/17 14:26:41;;;;;;;13.10;6.97;;;;;;;17.34;69.08;101029.84;5910090;29;20249;-55
2021/08/17 14:30:01;;;;;;;10.13;6.03;;;;;;;16.97;70.02;101033.69;5913134;29;20325;-59
2021/08/17 14:33:22;;;;;;;10.53;5.53;;;;;;;17.19;69.75;101038.25;5910800;29;20756;-53
2021/08/17 14:36:43;;;;;;;14.40;6.47;;;;;;;16.92;70.50;101044.38;5911427;29;20257;-51
2021/08/17 14:40:07;;;;;;;14.97;6.63;;;;;;;17.16;69.58;101059.38;5902532;29;20257;-54
2021/08/17 14:43:28;;;;;;;9.93;6.13;;;;;;;16.77;71.36;101067.59;5912562;29;20238;-54
2021/08/17 14:46:49;;;;;;;12.60;6.20;;;;;;;16.68;70.87;101064.34;5911542;29;20238;-51
2021/08/17 14:50:10;;;;;;;13.53;7.47;;;;;;;16.82;71.20;101056.06;5908331;29;20260;-50
2021/08/17 14:53:31;;;;;;;10.43;6.27;;;;;;;16.66;72.28;101052.19;5913260;29;20625;-54
2021/08/17 14:56:53;;;;;;;13.37;8.10;;;;;;;16.66;71.72;101045.16;5912661;29;20610;-52
2021/08/17 15:00:15;;;;;;;12.83;7.50;;;;;;;17.26;69.12;101043.25;5905232;29;20660;-53
2021/08/17 15:03:36;;;;;;;11.33;7.13;;;;;;;17.13;68.31;101044.56;5911836;29;20265;-52
2021/08/17 15:06:57;;;;;;;10.17;7.83;;;;;;;17.17;68.48;101035.66;5914134;29;20242;-54
2021/08/17 15:10:18;;;;;;;11.20;6.53;;;;;;;17.38;66.42;101031.47;5911805;29;21674;-52
2021/08/17 15:13:40;;;;;;;12.43;7.47;;;;;;;17.90;65.66;101032.28;5910357;29;20281;-55
2021/08/17 15:17:01;;;;;;;14.63;8.00;;;;;;;18.02;64.84;101027.50;5912341;29;20238;-55
2021/08/17 15:20:24;;;;;;;11.48;6.38;;;;;;;18.29;63.70;101034.38;5911298;29;20245;-54
2021/08/17 15:23:45;;;;;;;13.40;8.13;;;;;;;17.76;65.15;101028.41;5912106;29;20237;-54
2021/08/17 15:27:06;;;;;;;16.40;7.47;;;;;;;17.65;65.64;101041.97;5910175;29;20250;-53
2021/08/17 15:30:28;;;;;;;11.90;7.53;;;;;;;17.15;66.61;101037.50;5910367;29;20641;-51
2021/08/17 15:33:48;;;;;;;11.53;7.63;;;;;;;17.11;66.52;101043.75;5912780;29;20238;-53
2021/08/17 15:37:09;;;;;;;11.83;6.03;;;;;;;16.94;65.87;101054.81;5912275;29;20245;-54